sensor_id;sensor_type;location;lat;lon;timestamp;temperature;humidity
6654;DHT22;3363;50.942;7.034;2023-07-13T00:01:04;20.90;37.70
6654;DHT22;3363;50.942;7.034;2023-07-13T00:03:33;20.90;38.20
6654;DHT22;3363;50.942;7.034;2023-07-13T00:06:00;20.90;38.40
6654;DHT22;3363;50.942;7.034;2023-07-13T00:08:29;20.80;38.90
6654;DHT22;3363;50.942;7.034;2023-07-13T00:10:58;20.60;39.70
6654;DHT22;3363;50.942;7.034;2023-07-13T00:13:24;20.70;39.60
6654;DHT22;3363;50.942;7.034;2023-07-13T00:15:51;20.50;39.90
6654;DHT22;3363;50.942;7.034;2023-07-13T00:18:19;20.30;40.70
6654;DHT22;3363;50.942;7.034;2023-07-13T00:20:47;20.40;40.80
6654;DHT22;3363;50.942;7.034;2023-07-13T00:23:14;20.30;41.00
6654;DHT22;3363;50.942;7.034;2023-07-13T00:25:42;20.20;41.00
6654;DHT22;3363;50.942;7.034;2023-07-13T00:28:09;20.20;41.30
6654;DHT22;3363;50.942;7.034;2023-07-13T00:39:46;20.30;40.90
6654;DHT22;3363;50.942;7.034;2023-07-13T00:42:14;20.30;42.10
6654;DHT22;3363;50.942;7.034;2023-07-13T00:44:40;20.30;42.50
6654;DHT22;3363;50.942;7.034;2023-07-13T00:47:07;20.30;42.60
6654;DHT22;3363;50.942;7.034;2023-07-13T00:49:34;20.30;42.30
6654;DHT22;3363;50.942;7.034;2023-07-13T00:52:02;19.90;43.00
6654;DHT22;3363;50.942;7.034;2023-07-13T00:54:32;20.00;43.30
6654;DHT22;3363;50.942;7.034;2023-07-13T00:57:02;19.90;44.00
6654;DHT22;3363;50.942;7.034;2023-07-13T00:59:29;19.90;44.40
6654;DHT22;3363;50.942;7.034;2023-07-13T01:01:56;19.60;45.60
6654;DHT22;3363;50.942;7.034;2023-07-13T01:04:23;19.70;45.80
6654;DHT22;3363;50.942;7.034;2023-07-13T01:06:50;19.80;45.00
6654;DHT22;3363;50.942;7.034;2023-07-13T01:09:19;19.80;44.50
6654;DHT22;3363;50.942;7.034;2023-07-13T01:11:46;19.80;43.90
6654;DHT22;3363;50.942;7.034;2023-07-13T01:14:14;19.80;44.10
6654;DHT22;3363;50.942;7.034;2023-07-13T01:16:42;19.70;44.60
6654;DHT22;3363;50.942;7.034;2023-07-13T01:19:12;19.70;44.50
6654;DHT22;3363;50.942;7.034;2023-07-13T01:21:42;19.70;44.00
6654;DHT22;3363;50.942;7.034;2023-07-13T01:24:09;19.60;44.20
6654;DHT22;3363;50.942;7.034;2023-07-13T01:26:36;19.60;44.50
6654;DHT22;3363;50.942;7.034;2023-07-13T01:29:02;19.60;45.00
6654;DHT22;3363;50.942;7.034;2023-07-13T01:31:29;19.50;45.00
6654;DHT22;3363;50.942;7.034;2023-07-13T01:33:56;19.30;46.30
6654;DHT22;3363;50.942;7.034;2023-07-13T01:36:23;19.10;46.80
6654;DHT22;3363;50.942;7.034;2023-07-13T01:38:51;18.90;47.60
6654;DHT22;3363;50.942;7.034;2023-07-13T01:41:18;19.20;47.40
6654;DHT22;3363;50.942;7.034;2023-07-13T01:43:44;19.30;47.60
6654;DHT22;3363;50.942;7.034;2023-07-13T01:46:11;19.30;47.10
6654;DHT22;3363;50.942;7.034;2023-07-13T01:48:38;19.10;47.60
6654;DHT22;3363;50.942;7.034;2023-07-13T01:51:04;18.80;48.80
6654;DHT22;3363;50.942;7.034;2023-07-13T01:53:31;18.90;48.50
6654;DHT22;3363;50.942;7.034;2023-07-13T01:55:59;18.80;49.30
6654;DHT22;3363;50.942;7.034;2023-07-13T01:58:26;19.00;48.70
6654;DHT22;3363;50.942;7.034;2023-07-13T02:00:52;18.10;52.10
6654;DHT22;3363;50.942;7.034;2023-07-13T02:03:19;18.70;49.90
6654;DHT22;3363;50.942;7.034;2023-07-13T02:05:46;18.80;49.50
6654;DHT22;3363;50.942;7.034;2023-07-13T02:08:13;18.80;50.60
6654;DHT22;3363;50.942;7.034;2023-07-13T02:10:39;18.90;49.50
6654;DHT22;3363;50.942;7.034;2023-07-13T02:13:07;18.60;51.50
6654;DHT22;3363;50.942;7.034;2023-07-13T02:15:37;18.80;50.20
6654;DHT22;3363;50.942;7.034;2023-07-13T02:18:04;18.90;49.60
6654;DHT22;3363;50.942;7.034;2023-07-13T02:20:31;18.90;49.30
6654;DHT22;3363;50.942;7.034;2023-07-13T02:22:57;18.90;50.00
6654;DHT22;3363;50.942;7.034;2023-07-13T02:25:24;18.90;49.70
6654;DHT22;3363;50.942;7.034;2023-07-13T02:27:52;18.80;49.50
6654;DHT22;3363;50.942;7.034;2023-07-13T02:30:20;18.80;49.40
6654;DHT22;3363;50.942;7.034;2023-07-13T02:32:50;18.80;49.20
6654;DHT22;3363;50.942;7.034;2023-07-13T02:35:16;18.80;49.20
6654;DHT22;3363;50.942;7.034;2023-07-13T02:37:43;18.70;49.40
6654;DHT22;3363;50.942;7.034;2023-07-13T02:40:10;18.60;50.60
6654;DHT22;3363;50.942;7.034;2023-07-13T02:42:38;18.60;51.00
6654;DHT22;3363;50.942;7.034;2023-07-13T02:45:05;18.70;50.70
6654;DHT22;3363;50.942;7.034;2023-07-13T02:47:34;18.50;52.00
6654;DHT22;3363;50.942;7.034;2023-07-13T02:50:01;18.50;51.80
6654;DHT22;3363;50.942;7.034;2023-07-13T02:52:28;18.30;53.40
6654;DHT22;3363;50.942;7.034;2023-07-13T02:54:55;18.40;52.20
6654;DHT22;3363;50.942;7.034;2023-07-13T02:57:21;18.00;55.60
6654;DHT22;3363;50.942;7.034;2023-07-13T02:59:48;18.10;53.90
6654;DHT22;3363;50.942;7.034;2023-07-13T03:02:15;18.30;53.70
6654;DHT22;3363;50.942;7.034;2023-07-13T03:04:43;18.30;51.90
6654;DHT22;3363;50.942;7.034;2023-07-13T03:07:10;18.30;52.40
6654;DHT22;3363;50.942;7.034;2023-07-13T03:09:37;18.20;51.60
6654;DHT22;3363;50.942;7.034;2023-07-13T03:12:03;18.30;51.50
6654;DHT22;3363;50.942;7.034;2023-07-13T03:14:30;18.40;52.20
6654;DHT22;3363;50.942;7.034;2023-07-13T03:16:57;18.40;50.90
6654;DHT22;3363;50.942;7.034;2023-07-13T03:19:24;18.40;50.90
6654;DHT22;3363;50.942;7.034;2023-07-13T03:21:52;18.40;51.10
6654;DHT22;3363;50.942;7.034;2023-07-13T03:24:19;18.30;51.00
6654;DHT22;3363;50.942;7.034;2023-07-13T03:26:48;17.90;53.60
6654;DHT22;3363;50.942;7.034;2023-07-13T03:29:15;17.70;53.80
6654;DHT22;3363;50.942;7.034;2023-07-13T03:31:42;18.00;53.10
6654;DHT22;3363;50.942;7.034;2023-07-13T03:34:08;18.10;52.80
6654;DHT22;3363;50.942;7.034;2023-07-13T03:36:35;18.10;53.00
6654;DHT22;3363;50.942;7.034;2023-07-13T03:39:03;18.10;52.50
6654;DHT22;3363;50.942;7.034;2023-07-13T03:41:33;18.10;53.00
6654;DHT22;3363;50.942;7.034;2023-07-13T03:44:00;18.00;52.90
6654;DHT22;3363;50.942;7.034;2023-07-13T03:46:27;18.10;52.90
6654;DHT22;3363;50.942;7.034;2023-07-13T03:48:53;18.10;52.70
6654;DHT22;3363;50.942;7.034;2023-07-13T03:51:20;18.10;52.60
6654;DHT22;3363;50.942;7.034;2023-07-13T03:53:47;18.10;53.30
6654;DHT22;3363;50.942;7.034;2023-07-13T03:56:17;18.00;53.90
6654;DHT22;3363;50.942;7.034;2023-07-13T03:58:44;17.80;55.40
6654;DHT22;3363;50.942;7.034;2023-07-13T04:01:12;17.50;57.00
6654;DHT22;3363;50.942;7.034;2023-07-13T04:03:39;17.50;57.80
6654;DHT22;3363;50.942;7.034;2023-07-13T04:06:07;17.60;58.30
6654;DHT22;3363;50.942;7.034;2023-07-13T04:08:36;17.30;58.50
6654;DHT22;3363;50.942;7.034;2023-07-13T04:11:03;17.50;57.20
6654;DHT22;3363;50.942;7.034;2023-07-13T04:13:31;17.50;58.10
6654;DHT22;3363;50.942;7.034;2023-07-13T04:15:58;17.50;59.00
6654;DHT22;3363;50.942;7.034;2023-07-13T04:18:24;17.50;57.10
6654;DHT22;3363;50.942;7.034;2023-07-13T04:20:51;17.80;56.40
6654;DHT22;3363;50.942;7.034;2023-07-13T04:23:18;17.90;55.50
6654;DHT22;3363;50.942;7.034;2023-07-13T04:25:45;17.90;55.20
6654;DHT22;3363;50.942;7.034;2023-07-13T04:28:12;17.60;57.60
6654;DHT22;3363;50.942;7.034;2023-07-13T04:30:40;17.70;57.30
6654;DHT22;3363;50.942;7.034;2023-07-13T04:33:07;17.60;57.90
6654;DHT22;3363;50.942;7.034;2023-07-13T04:35:34;17.30;60.20
6654;DHT22;3363;50.942;7.034;2023-07-13T04:38:01;17.30;59.80
6654;DHT22;3363;50.942;7.034;2023-07-13T04:40:28;17.30;60.90
6654;DHT22;3363;50.942;7.034;2023-07-13T04:42:55;17.40;60.70
6654;DHT22;3363;50.942;7.034;2023-07-13T04:45:21;17.60;58.80
6654;DHT22;3363;50.942;7.034;2023-07-13T04:47:50;17.60;58.10
6654;DHT22;3363;50.942;7.034;2023-07-13T04:50:17;17.90;57.60
6654;DHT22;3363;50.942;7.034;2023-07-13T04:52:48;18.00;57.10
6654;DHT22;3363;50.942;7.034;2023-07-13T04:55:15;18.10;57.20
6654;DHT22;3363;50.942;7.034;2023-07-13T04:57:42;18.10;57.60
6654;DHT22;3363;50.942;7.034;2023-07-13T05:00:08;18.20;54.90
6654;DHT22;3363;50.942;7.034;2023-07-13T05:02:37;18.30;54.10
6654;DHT22;3363;50.942;7.034;2023-07-13T05:05:05;18.40;54.30
6654;DHT22;3363;50.942;7.034;2023-07-13T05:07:33;18.20;54.30
6654;DHT22;3363;50.942;7.034;2023-07-13T05:09:59;17.60;57.00
6654;DHT22;3363;50.942;7.034;2023-07-13T05:12:26;17.30;60.30
6654;DHT22;3363;50.942;7.034;2023-07-13T05:14:53;18.30;56.70
6654;DHT22;3363;50.942;7.034;2023-07-13T05:17:19;18.80;52.90
6654;DHT22;3363;50.942;7.034;2023-07-13T05:19:46;19.00;51.90
6654;DHT22;3363;50.942;7.034;2023-07-13T05:22:14;19.00;51.80
6654;DHT22;3363;50.942;7.034;2023-07-13T05:24:41;19.20;50.80
6654;DHT22;3363;50.942;7.034;2023-07-13T05:27:08;18.90;51.30
6654;DHT22;3363;50.942;7.034;2023-07-13T05:29:35;18.70;54.30
6654;DHT22;3363;50.942;7.034;2023-07-13T05:32:01;18.30;56.90
6654;DHT22;3363;50.942;7.034;2023-07-13T05:34:28;18.30;56.70
6654;DHT22;3363;50.942;7.034;2023-07-13T05:36:55;17.80;58.70
6654;DHT22;3363;50.942;7.034;2023-07-13T05:39:24;18.10;58.40
6654;DHT22;3363;50.942;7.034;2023-07-13T05:41:51;18.10;59.30
6654;DHT22;3363;50.942;7.034;2023-07-13T05:44:18;18.40;57.20
6654;DHT22;3363;50.942;7.034;2023-07-13T05:46:45;18.80;54.40
6654;DHT22;3363;50.942;7.034;2023-07-13T05:49:12;18.50;56.10
6654;DHT22;3363;50.942;7.034;2023-07-13T05:51:38;18.70;54.90
6654;DHT22;3363;50.942;7.034;2023-07-13T05:54:05;18.50;56.60
6654;DHT22;3363;50.942;7.034;2023-07-13T05:56:33;18.80;55.90
6654;DHT22;3363;50.942;7.034;2023-07-13T05:58:59;19.00;54.10
6654;DHT22;3363;50.942;7.034;2023-07-13T06:01:26;19.30;54.30
6654;DHT22;3363;50.942;7.034;2023-07-13T06:03:53;19.50;52.00
6654;DHT22;3363;50.942;7.034;2023-07-13T06:06:19;19.60;51.20
6654;DHT22;3363;50.942;7.034;2023-07-13T06:08:46;19.60;51.30
6654;DHT22;3363;50.942;7.034;2023-07-13T06:11:13;19.80;50.90
6654;DHT22;3363;50.942;7.034;2023-07-13T06:13:42;19.70;52.10
6654;DHT22;3363;50.942;7.034;2023-07-13T06:16:08;19.80;51.80
6654;DHT22;3363;50.942;7.034;2023-07-13T06:18:36;19.90;50.40
6654;DHT22;3363;50.942;7.034;2023-07-13T06:21:05;19.90;50.20
6654;DHT22;3363;50.942;7.034;2023-07-13T06:23:32;19.90;50.00
6654;DHT22;3363;50.942;7.034;2023-07-13T06:25:58;20.00;49.60
6654;DHT22;3363;50.942;7.034;2023-07-13T06:28:25;20.40;49.00
6654;DHT22;3363;50.942;7.034;2023-07-13T06:30:53;20.80;47.90
6654;DHT22;3363;50.942;7.034;2023-07-13T06:33:20;20.60;48.30
6654;DHT22;3363;50.942;7.034;2023-07-13T06:35:46;21.20;47.10
6654;DHT22;3363;50.942;7.034;2023-07-13T06:38:13;23.20;41.90
6654;DHT22;3363;50.942;7.034;2023-07-13T06:40:40;24.60;38.40
6654;DHT22;3363;50.942;7.034;2023-07-13T06:43:07;25.30;34.90
6654;DHT22;3363;50.942;7.034;2023-07-13T06:45:35;24.00;37.70
6654;DHT22;3363;50.942;7.034;2023-07-13T06:48:04;23.60;38.10
6654;DHT22;3363;50.942;7.034;2023-07-13T06:50:31;23.40;38.80
6654;DHT22;3363;50.942;7.034;2023-07-13T06:52:57;22.60;41.70
6654;DHT22;3363;50.942;7.034;2023-07-13T06:55:25;21.70;43.60
6654;DHT22;3363;50.942;7.034;2023-07-13T06:57:52;21.30;45.10
6654;DHT22;3363;50.942;7.034;2023-07-13T07:00:18;20.90;46.40
6654;DHT22;3363;50.942;7.034;2023-07-13T07:02:46;20.70;47.10
6654;DHT22;3363;50.942;7.034;2023-07-13T07:05:14;20.70;48.10
6654;DHT22;3363;50.942;7.034;2023-07-13T07:07:40;20.60;48.40
6654;DHT22;3363;50.942;7.034;2023-07-13T07:10:07;20.70;48.10
6654;DHT22;3363;50.942;7.034;2023-07-13T07:12:34;20.70;47.90
6654;DHT22;3363;50.942;7.034;2023-07-13T07:15:01;20.60;49.80
6654;DHT22;3363;50.942;7.034;2023-07-13T07:17:27;20.50;49.30
6654;DHT22;3363;50.942;7.034;2023-07-13T07:19:54;20.50;51.20
6654;DHT22;3363;50.942;7.034;2023-07-13T07:22:22;20.30;50.20
6654;DHT22;3363;50.942;7.034;2023-07-13T07:24:52;20.40;50.20
6654;DHT22;3363;50.942;7.034;2023-07-13T07:27:19;20.60;49.30
6654;DHT22;3363;50.942;7.034;2023-07-13T07:29:45;20.60;49.20
6654;DHT22;3363;50.942;7.034;2023-07-13T07:32:12;20.50;49.50
6654;DHT22;3363;50.942;7.034;2023-07-13T07:34:39;20.60;49.80
6654;DHT22;3363;50.942;7.034;2023-07-13T07:37:05;20.60;48.90
6654;DHT22;3363;50.942;7.034;2023-07-13T07:39:33;20.70;48.50
6654;DHT22;3363;50.942;7.034;2023-07-13T07:42:00;20.70;48.80
6654;DHT22;3363;50.942;7.034;2023-07-13T07:44:27;20.70;48.70
6654;DHT22;3363;50.942;7.034;2023-07-13T07:46:53;20.70;48.70
6654;DHT22;3363;50.942;7.034;2023-07-13T07:49:20;20.70;48.50
6654;DHT22;3363;50.942;7.034;2023-07-13T07:51:47;20.80;48.30
6654;DHT22;3363;50.942;7.034;2023-07-13T07:54:13;20.90;48.40
6654;DHT22;3363;50.942;7.034;2023-07-13T07:56:42;20.90;48.60
6654;DHT22;3363;50.942;7.034;2023-07-13T07:59:08;20.90;48.10
6654;DHT22;3363;50.942;7.034;2023-07-13T08:01:35;20.90;47.90
6654;DHT22;3363;50.942;7.034;2023-07-13T08:04:02;21.00;48.00
6654;DHT22;3363;50.942;7.034;2023-07-13T08:06:29;21.00;49.30
6654;DHT22;3363;50.942;7.034;2023-07-13T08:08:55;20.90;48.50
6654;DHT22;3363;50.942;7.034;2023-07-13T08:11:22;20.90;49.70
6654;DHT22;3363;50.942;7.034;2023-07-13T08:13:50;20.90;49.30
6654;DHT22;3363;50.942;7.034;2023-07-13T08:16:17;20.90;49.50
6654;DHT22;3363;50.942;7.034;2023-07-13T08:18:44;21.00;48.70
6654;DHT22;3363;50.942;7.034;2023-07-13T08:21:10;21.10;48.30
6654;DHT22;3363;50.942;7.034;2023-07-13T08:23:37;21.20;49.50
6654;DHT22;3363;50.942;7.034;2023-07-13T08:26:04;21.20;47.80
6654;DHT22;3363;50.942;7.034;2023-07-13T08:28:31;21.20;47.50
6654;DHT22;3363;50.942;7.034;2023-07-13T08:31:01;21.30;47.60
6654;DHT22;3363;50.942;7.034;2023-07-13T08:33:28;21.30;47.40
6654;DHT22;3363;50.942;7.034;2023-07-13T08:35:54;21.40;47.10
6654;DHT22;3363;50.942;7.034;2023-07-13T08:38:22;21.40;47.40
6654;DHT22;3363;50.942;7.034;2023-07-13T08:40:50;21.30;47.60
6654;DHT22;3363;50.942;7.034;2023-07-13T08:43:18;21.20;48.10
6654;DHT22;3363;50.942;7.034;2023-07-13T08:45:46;21.20;47.80
6654;DHT22;3363;50.942;7.034;2023-07-13T08:48:16;21.30;47.60
6654;DHT22;3363;50.942;7.034;2023-07-13T08:50:46;21.40;47.60
6654;DHT22;3363;50.942;7.034;2023-07-13T08:53:15;21.50;47.80
6654;DHT22;3363;50.942;7.034;2023-07-13T08:55:43;21.50;46.70
6654;DHT22;3363;50.942;7.034;2023-07-13T08:58:10;21.60;46.60
6654;DHT22;3363;50.942;7.034;2023-07-13T09:00:41;21.60;46.70
6654;DHT22;3363;50.942;7.034;2023-07-13T09:03:12;21.50;47.80
6654;DHT22;3363;50.942;7.034;2023-07-13T09:05:45;21.70;46.90
6654;DHT22;3363;50.942;7.034;2023-07-13T09:08:22;21.80;45.70
6654;DHT22;3363;50.942;7.034;2023-07-13T09:10:57;21.60;46.90
6654;DHT22;3363;50.942;7.034;2023-07-13T09:13:27;21.60;46.40
6654;DHT22;3363;50.942;7.034;2023-07-13T09:15:56;21.60;46.00
6654;DHT22;3363;50.942;7.034;2023-07-13T09:18:26;21.70;45.90
6654;DHT22;3363;50.942;7.034;2023-07-13T09:20:56;21.60;46.00
6654;DHT22;3363;50.942;7.034;2023-07-13T09:23:24;21.50;46.30
6654;DHT22;3363;50.942;7.034;2023-07-13T09:25:52;21.50;46.30
6654;DHT22;3363;50.942;7.034;2023-07-13T09:28:22;21.50;46.30
6654;DHT22;3363;50.942;7.034;2023-07-13T09:30:50;21.40;47.00
6654;DHT22;3363;50.942;7.034;2023-07-13T09:33:18;21.40;46.80
6654;DHT22;3363;50.942;7.034;2023-07-13T09:35:45;21.40;47.60
6654;DHT22;3363;50.942;7.034;2023-07-13T09:38:14;21.40;47.00
6654;DHT22;3363;50.942;7.034;2023-07-13T09:40:56;21.60;47.90
6654;DHT22;3363;50.942;7.034;2023-07-13T09:43:26;21.70;46.00
6654;DHT22;3363;50.942;7.034;2023-07-13T09:45:54;21.70;47.00
6654;DHT22;3363;50.942;7.034;2023-07-13T09:48:20;21.90;45.60
6654;DHT22;3363;50.942;7.034;2023-07-13T09:50:47;22.10;44.80
6654;DHT22;3363;50.942;7.034;2023-07-13T09:53:16;22.20;44.10
6654;DHT22;3363;50.942;7.034;2023-07-13T09:55:43;22.30;43.40
6654;DHT22;3363;50.942;7.034;2023-07-13T09:58:12;22.20;44.40
6654;DHT22;3363;50.942;7.034;2023-07-13T10:00:40;22.20;44.70
6654;DHT22;3363;50.942;7.034;2023-07-13T10:03:14;22.30;44.30
6654;DHT22;3363;50.942;7.034;2023-07-13T10:05:43;22.40;44.40
6654;DHT22;3363;50.942;7.034;2023-07-13T10:08:21;22.50;43.00
6654;DHT22;3363;50.942;7.034;2023-07-13T10:10:52;22.70;42.40
6654;DHT22;3363;50.942;7.034;2023-07-13T10:13:27;23.00;41.00
6654;DHT22;3363;50.942;7.034;2023-07-13T10:15:55;23.10;40.70
6654;DHT22;3363;50.942;7.034;2023-07-13T10:18:22;23.00;39.20
6654;DHT22;3363;50.942;7.034;2023-07-13T10:20:50;23.00;40.90
6654;DHT22;3363;50.942;7.034;2023-07-13T10:23:20;23.20;40.20
6654;DHT22;3363;50.942;7.034;2023-07-13T10:25:49;23.30;38.70
6654;DHT22;3363;50.942;7.034;2023-07-13T10:28:20;23.20;39.10
6654;DHT22;3363;50.942;7.034;2023-07-13T10:30:48;23.30;39.50
6654;DHT22;3363;50.942;7.034;2023-07-13T10:33:16;23.40;38.60
6654;DHT22;3363;50.942;7.034;2023-07-13T10:35:43;23.60;38.10
6654;DHT22;3363;50.942;7.034;2023-07-13T10:38:11;23.70;38.30
6654;DHT22;3363;50.942;7.034;2023-07-13T10:40:40;23.80;38.10
6654;DHT22;3363;50.942;7.034;2023-07-13T10:43:11;23.90;37.60
6654;DHT22;3363;50.942;7.034;2023-07-13T10:45:41;23.90;38.00
6654;DHT22;3363;50.942;7.034;2023-07-13T10:48:08;23.70;38.20
6654;DHT22;3363;50.942;7.034;2023-07-13T10:50:35;23.80;37.90
6654;DHT22;3363;50.942;7.034;2023-07-13T10:53:16;23.90;38.70
6654;DHT22;3363;50.942;7.034;2023-07-13T10:55:54;24.00;37.80
6654;DHT22;3363;50.942;7.034;2023-07-13T10:58:23;24.20;36.90
6654;DHT22;3363;50.942;7.034;2023-07-13T11:00:51;24.30;36.70
6654;DHT22;3363;50.942;7.034;2023-07-13T11:03:20;24.20;37.70
6654;DHT22;3363;50.942;7.034;2023-07-13T11:05:48;24.00;37.50
6654;DHT22;3363;50.942;7.034;2023-07-13T11:08:18;23.60;38.50
6654;DHT22;3363;50.942;7.034;2023-07-13T11:10:48;23.60;38.10
6654;DHT22;3363;50.942;7.034;2023-07-13T11:16:01;23.70;39.10
6654;DHT22;3363;50.942;7.034;2023-07-13T11:18:38;23.50;39.00
6654;DHT22;3363;50.942;7.034;2023-07-13T11:21:15;23.40;38.40
6654;DHT22;3363;50.942;7.034;2023-07-13T11:23:42;23.30;39.60
6654;DHT22;3363;50.942;7.034;2023-07-13T11:28:51;22.90;39.80
6654;DHT22;3363;50.942;7.034;2023-07-13T11:31:19;22.80;40.00
6654;DHT22;3363;50.942;7.034;2023-07-13T11:33:52;22.70;40.50
6654;DHT22;3363;50.942;7.034;2023-07-13T11:36:19;22.90;39.40
6654;DHT22;3363;50.942;7.034;2023-07-13T11:38:51;23.00;39.90
6654;DHT22;3363;50.942;7.034;2023-07-13T11:41:21;23.10;39.60
6654;DHT22;3363;50.942;7.034;2023-07-13T11:43:48;23.00;40.80
6654;DHT22;3363;50.942;7.034;2023-07-13T11:46:18;23.00;40.70
6654;DHT22;3363;50.942;7.034;2023-07-13T11:48:48;23.10;40.10
6654;DHT22;3363;50.942;7.034;2023-07-13T11:51:17;23.00;39.20
6654;DHT22;3363;50.942;7.034;2023-07-13T11:53:46;22.90;39.90
6654;DHT22;3363;50.942;7.034;2023-07-13T11:56:13;22.70;39.50
6654;DHT22;3363;50.942;7.034;2023-07-13T11:58:40;22.70;40.10
6654;DHT22;3363;50.942;7.034;2023-07-13T12:01:10;22.70;40.20
6654;DHT22;3363;50.942;7.034;2023-07-13T12:03:41;22.60;40.50
6654;DHT22;3363;50.942;7.034;2023-07-13T12:06:19;22.60;40.50
6654;DHT22;3363;50.942;7.034;2023-07-13T12:08:47;22.70;40.50
6654;DHT22;3363;50.942;7.034;2023-07-13T12:11:16;22.90;41.60
6654;DHT22;3363;50.942;7.034;2023-07-13T12:13:43;22.90;40.50
6654;DHT22;3363;50.942;7.034;2023-07-13T12:16:14;23.00;39.80
6654;DHT22;3363;50.942;7.034;2023-07-13T12:18:42;23.00;40.20
6654;DHT22;3363;50.942;7.034;2023-07-13T12:21:12;23.00;39.60
6654;DHT22;3363;50.942;7.034;2023-07-13T12:23:42;23.10;39.30
6654;DHT22;3363;50.942;7.034;2023-07-13T12:26:09;23.10;39.20
6654;DHT22;3363;50.942;7.034;2023-07-13T12:28:37;23.10;39.40
6654;DHT22;3363;50.942;7.034;2023-07-13T12:31:05;23.10;38.80
6654;DHT22;3363;50.942;7.034;2023-07-13T12:33:32;23.00;39.30
6654;DHT22;3363;50.942;7.034;2023-07-13T12:36:00;23.00;37.50
6654;DHT22;3363;50.942;7.034;2023-07-13T12:38:29;23.10;38.40
6654;DHT22;3363;50.942;7.034;2023-07-13T12:40:57;23.10;38.40
6654;DHT22;3363;50.942;7.034;2023-07-13T12:43:25;23.20;37.70
6654;DHT22;3363;50.942;7.034;2023-07-13T12:45:56;23.20;37.80
6654;DHT22;3363;50.942;7.034;2023-07-13T12:48:23;23.30;37.80
6654;DHT22;3363;50.942;7.034;2023-07-13T12:50:50;23.60;37.40
6654;DHT22;3363;50.942;7.034;2023-07-13T12:53:19;23.80;37.80
6654;DHT22;3363;50.942;7.034;2023-07-13T12:55:46;23.80;37.10
6654;DHT22;3363;50.942;7.034;2023-07-13T12:58:16;23.70;36.80
6654;DHT22;3363;50.942;7.034;2023-07-13T13:00:47;23.60;37.00
6654;DHT22;3363;50.942;7.034;2023-07-13T13:03:17;23.50;36.70
6654;DHT22;3363;50.942;7.034;2023-07-13T13:05:46;23.50;36.10
6654;DHT22;3363;50.942;7.034;2023-07-13T13:08:14;23.50;36.30
6654;DHT22;3363;50.942;7.034;2023-07-13T13:10:40;23.40;34.80
6654;DHT22;3363;50.942;7.034;2023-07-13T13:13:07;23.50;36.30
6654;DHT22;3363;50.942;7.034;2023-07-13T13:15:36;23.50;35.50
6654;DHT22;3363;50.942;7.034;2023-07-13T13:18:04;23.60;36.80
6654;DHT22;3363;50.942;7.034;2023-07-13T13:20:31;23.60;37.90
6654;DHT22;3363;50.942;7.034;2023-07-13T13:22:58;23.70;36.80
6654;DHT22;3363;50.942;7.034;2023-07-13T13:25:24;23.80;36.70
6654;DHT22;3363;50.942;7.034;2023-07-13T13:27:51;23.90;35.80
6654;DHT22;3363;50.942;7.034;2023-07-13T13:30:18;24.00;35.30
6654;DHT22;3363;50.942;7.034;2023-07-13T13:32:48;24.20;34.50
6654;DHT22;3363;50.942;7.034;2023-07-13T13:35:15;24.30;34.20
6654;DHT22;3363;50.942;7.034;2023-07-13T13:37:42;24.40;34.10
6654;DHT22;3363;50.942;7.034;2023-07-13T13:40:13;24.40;33.60
6654;DHT22;3363;50.942;7.034;2023-07-13T13:42:40;24.50;33.20
6654;DHT22;3363;50.942;7.034;2023-07-13T13:45:07;24.50;33.50
6654;DHT22;3363;50.942;7.034;2023-07-13T13:47:34;24.50;32.60
6654;DHT22;3363;50.942;7.034;2023-07-13T13:50:04;24.60;31.70
6654;DHT22;3363;50.942;7.034;2023-07-13T13:52:36;24.60;32.20
6654;DHT22;3363;50.942;7.034;2023-07-13T13:55:04;24.70;32.60
6654;DHT22;3363;50.942;7.034;2023-07-13T13:57:31;24.70;32.10
6654;DHT22;3363;50.942;7.034;2023-07-13T13:59:58;24.70;32.30
6654;DHT22;3363;50.942;7.034;2023-07-13T14:02:26;24.60;32.10
6654;DHT22;3363;50.942;7.034;2023-07-13T14:04:54;24.50;32.90
6654;DHT22;3363;50.942;7.034;2023-07-13T14:07:23;24.40;32.90
6654;DHT22;3363;50.942;7.034;2023-07-13T14:09:49;24.40;32.90
6654;DHT22;3363;50.942;7.034;2023-07-13T14:12:16;24.30;32.70
6654;DHT22;3363;50.942;7.034;2023-07-13T14:14:43;24.20;32.60
6654;DHT22;3363;50.942;7.034;2023-07-13T14:17:15;24.40;32.60
6654;DHT22;3363;50.942;7.034;2023-07-13T14:19:47;24.50;32.80
6654;DHT22;3363;50.942;7.034;2023-07-13T14:22:16;24.60;32.70
6654;DHT22;3363;50.942;7.034;2023-07-13T14:24:44;24.50;33.60
6654;DHT22;3363;50.942;7.034;2023-07-13T14:27:11;24.50;32.70
6654;DHT22;3363;50.942;7.034;2023-07-13T14:29:37;24.30;32.10
6654;DHT22;3363;50.942;7.034;2023-07-13T14:32:07;24.30;33.80
6654;DHT22;3363;50.942;7.034;2023-07-13T14:34:34;24.30;34.00
6654;DHT22;3363;50.942;7.034;2023-07-13T14:37:01;24.40;35.70
6654;DHT22;3363;50.942;7.034;2023-07-13T14:39:29;24.40;33.90
6654;DHT22;3363;50.942;7.034;2023-07-13T14:41:57;24.40;32.60
6654;DHT22;3363;50.942;7.034;2023-07-13T14:44:25;24.50;33.00
6654;DHT22;3363;50.942;7.034;2023-07-13T14:46:54;24.60;32.90
6654;DHT22;3363;50.942;7.034;2023-07-13T14:49:23;24.60;32.80
6654;DHT22;3363;50.942;7.034;2023-07-13T14:51:50;24.50;32.60
6654;DHT22;3363;50.942;7.034;2023-07-13T14:54:17;24.50;31.90
6654;DHT22;3363;50.942;7.034;2023-07-13T14:56:44;24.50;31.70
6654;DHT22;3363;50.942;7.034;2023-07-13T14:59:12;24.50;32.00
6654;DHT22;3363;50.942;7.034;2023-07-13T15:01:39;24.40;32.60
6654;DHT22;3363;50.942;7.034;2023-07-13T15:04:06;24.40;32.50
6654;DHT22;3363;50.942;7.034;2023-07-13T15:06:35;24.40;32.90
6654;DHT22;3363;50.942;7.034;2023-07-13T15:09:18;24.40;32.60
6654;DHT22;3363;50.942;7.034;2023-07-13T15:11:45;24.50;32.00
6654;DHT22;3363;50.942;7.034;2023-07-13T15:14:13;24.60;31.60
6654;DHT22;3363;50.942;7.034;2023-07-13T15:16:40;24.60;32.00
6654;DHT22;3363;50.942;7.034;2023-07-13T15:19:08;24.70;32.20
6654;DHT22;3363;50.942;7.034;2023-07-13T15:21:35;24.70;32.40
6654;DHT22;3363;50.942;7.034;2023-07-13T15:24:02;24.70;32.40
6654;DHT22;3363;50.942;7.034;2023-07-13T15:26:30;24.60;32.10
6654;DHT22;3363;50.942;7.034;2023-07-13T15:28:57;24.70;31.80
6654;DHT22;3363;50.942;7.034;2023-07-13T15:31:25;24.70;31.70
6654;DHT22;3363;50.942;7.034;2023-07-13T15:33:55;24.80;30.90
6654;DHT22;3363;50.942;7.034;2023-07-13T15:36:23;24.70;31.90
6654;DHT22;3363;50.942;7.034;2023-07-13T15:38:51;24.70;31.20
6654;DHT22;3363;50.942;7.034;2023-07-13T15:41:19;24.70;31.90
6654;DHT22;3363;50.942;7.034;2023-07-13T15:43:48;24.70;31.10
6654;DHT22;3363;50.942;7.034;2023-07-13T15:46:14;24.50;31.80
6654;DHT22;3363;50.942;7.034;2023-07-13T15:48:42;24.40;32.20
6654;DHT22;3363;50.942;7.034;2023-07-13T15:51:11;24.40;32.30
6654;DHT22;3363;50.942;7.034;2023-07-13T15:53:39;24.40;31.80
6654;DHT22;3363;50.942;7.034;2023-07-13T15:56:11;24.20;32.20
6654;DHT22;3363;50.942;7.034;2023-07-13T15:58:42;24.20;32.60
6654;DHT22;3363;50.942;7.034;2023-07-13T16:01:09;24.20;33.10
6654;DHT22;3363;50.942;7.034;2023-07-13T16:03:36;24.10;33.20
6654;DHT22;3363;50.942;7.034;2023-07-13T16:06:04;24.00;33.60
6654;DHT22;3363;50.942;7.034;2023-07-13T16:08:31;23.90;33.70
6654;DHT22;3363;50.942;7.034;2023-07-13T16:10:58;23.90;33.60
6654;DHT22;3363;50.942;7.034;2023-07-13T16:13:25;23.90;34.30
6654;DHT22;3363;50.942;7.034;2023-07-13T16:15:52;24.00;35.60
6654;DHT22;3363;50.942;7.034;2023-07-13T16:18:21;23.80;36.80
6654;DHT22;3363;50.942;7.034;2023-07-13T16:20:48;23.80;36.60